METAR Data
IDs: Format: Raw Decoded Include TAF

Data at: 0029 UTC 19 Nov 2018

PAOR 182353Z 24003KT 10SM BKN090 OVC120 M09/M12 A2967 RMK AO2 SLP097 4/004 T10941117 11094 21117 58011
PAOR 182253Z 34003KT 10SM BKN090 OVC110 M09/M12 A2968 RMK AO2 SLP101 T10941117
PAOR 182153Z 00000KT 10SM BKN090 OVC110 M10/M12 A2970 RMK AO2 SLP109 T11001122
PAOR 182053Z 00000KT 10SM BKN100 OVC120 M11/M12 A2971 RMK AO2 SLP112 T11061122 58004
PAOR 181953Z 00000KT 10SM BKN110 OVC140 M11/M13 A2971 RMK AO2 SLP113 T11111128
PAOR 181853Z 00000KT 10SM SCT110 OVC140 M12/M13 A2972 RMK AO2 SLP115 T11171128
PAOR 181753Z 00000KT 10SM OVC140 M12/M13 A2972 RMK AO2 SLP115 4/004 T11171133 11117 21133 55006
PAOR 181653Z 00000KT 10SM OVC130 M12/M13 A2971 RMK AO2 SLP113 T11221133
PAOR 181553Z 00000KT 10SM OVC130 M12/M14 A2973 RMK AO2 SLP120 T11221144
PAOR 181453Z 00000KT 10SM OVC130 M13/M15 A2974 RMK AO2 SLP126 T11331150 58003
PAOR 181353Z 24005KT 10SM OVC130 M13/M14 A2974 RMK AO2 SNB50E51 SLP123 T11281144
PAOR 181253Z 00000KT 10SM OVC130 M13/M14 A2975 RMK AO2 SLP127 T11281144
PAOR 181153Z 00000KT 10SM OVC130 M13/M14 A2975 RMK AO2 SLP125 4/004 T11331144 11122 21156 51001
PAOR 181053Z 08003KT 10SM FEW080 BKN130 M13/M14 A2974 RMK AO2 SLP123 T11281144
PAOR 180953Z 00000KT 10SM FEW080 BKN130 M13/M15 A2976 RMK AO2 SLP130 T11331150
PAOR 180853Z 06003KT 10SM FEW080 BKN130 M16/M17 A2975 RMK AO2 SLP128 T11561172 411171156 56001
PAOR 180753Z 00000KT 10SM FEW070 BKN110 M14/M16 A2975 RMK AO2 SLP131 T11441156
PAOR 180653Z 17003KT 10SM FEW070 BKN110 M13/M15 A2974 RMK AO2 SLP124 T11331150
PAOR 180553Z 14004KT 10SM FEW075 SCT120 M13/M14 A2975 RMK AO2 SLP129 4/004 T11281144 11117 21150 51004
PAOR 180453Z 15004KT 10SM FEW075 SCT100 M13/M14 A2975 RMK AO2 SLP126 T11281144
PAOR 180353Z 00000KT 10SM SCT065 BKN090 M14/M16 A2975 RMK AO2 SLP128 T11391156
PAOR 180253Z 14004KT 10SM SCT070 BKN090 M14/M16 A2974 RMK AO2 SLP126 T11441161 58004
PAOR 180153Z 14003KT 10SM SCT070 BKN090 M12/M14 A2974 RMK AO2 SLP122 T11221139
PAOR 180053Z 00000KT 10SM BKN070 BKN090 M12/M14 A2976 RMK AO2 SLP128 T11171139
PAOR 172353Z 00000KT 10SM BKN080 BKN100 M12/M14 A2975 RMK AO2 SLP128 4/004 T11171139 11117 21139 58008
PAOR 172253Z 00000KT 10SM SCT035 BKN080 BKN120 M12/M14 A2976 RMK AO2 SLP132 T11221144
PAOR 172153Z 00000KT 10SM SCT035 BKN090 BKN140 M12/M14 A2977 RMK AO2 SLP138 T11221144
PAOR 172053Z 08003KT 10SM FEW080 BKN090 M12/M15 A2978 RMK AO2 SLP137 T11221150 56003
PAOR 171953Z 00000KT 10SM SCT100 M14/M16 A2978 RMK AO2 SLP140 T11391156
PAOR 171853Z 00000KT 10SM SCT055 BKN110 M13/M15 A2978 RMK AO2 SLP140 T11331150
PAOR 171753Z 00000KT 10SM BKN100 M14/M16 A2979 RMK AO2 SLP143 4/004 T11391156 11128 21139 56010
PAOR 171653Z 00000KT 8SM OVC047 M13/M15 A2979 RMK AO2 SNE50 SLP143 T11281150
PAOR 171553Z 00000KT 2SM -SN BR OVC038 M13/M15 A2980 RMK AO2 SLP147 T11331150
PAOR 171453Z 00000KT 2SM -SN BR OVC037 M13/M16 A2982 RMK AO2 SNB1354 SLP153 T11331156 58020
PAOR 171433Z 00000KT 2 1/2SM -SN BR OVC075 M13/M16 A2982 RMK AO2 SNB1354 T11331156
PAOR 171353Z 00000KT 10SM OVC075 M13/M16 A2984 RMK AO2 SLP161 T11331156
PAOR 171253Z 00000KT 10SM OVC090 M13/M16 A2986 RMK AO2 SLP168 T11331156